Tenacious — ZQHM2 — position and weather

sailwx.info

Track history (hours):
 
Tides and Currents Weather Stations Pressure Air Temp Water Temp Dewpoint Dewpoint Depression Visibility Wind Speed Wind Dir Waves Ship Positions

Tenacious (United Kingdom)

Ship's website: http://www.jst.org.uk/

Last reported at 2019-Apr-25 12:00 UTC. Time now 2019-Apr-25 12:20 UTC.
Position N 50°04' W 001°09'.

Length 65 m; beam 10.6 m; draft 4.6 m.

Type: Sailing vessel. MMSI: 235000230.

Date/timePositionNaut miles runAvg speedWind from/ knotsBaromVisibWave heightAir tempDewpointWater temp
2019-Apr-25 12:00N 50°04' W 001°09'2 4.7
2019-Apr-25 11:30N 50°03' W 001°12'3 5.5
2019-Apr-25 11:00N 50°01' W 001°15'3 5.7
2019-Apr-25 10:30N 49°60' W 001°19'3 6.3
2019-Apr-25 10:00N 49°58' W 001°23'3 6.9
2019-Apr-25 09:30N 49°56' W 001°27'3 6.3
2019-Apr-25 09:00N 49°53' W 001°30'3 5.9
2019-Apr-25 08:30N 49°50' W 001°32'3 5.4
2019-Apr-25 08:00N 49°48' W 001°32'2 4.6
2019-Apr-25 07:30N 49°45' W 001°32'2 4.0
2019-Apr-25 07:00N 49°43' W 001°32'2 3.5
2019-Apr-25 06:30N 49°42' W 001°32'1 2.7
2019-Apr-25 06:00N 49°40' W 001°33'0 0.1
2019-Apr-25 05:30N 49°40' W 001°33'0 0.0
2019-Apr-25 05:00N 49°40' W 001°33'0 0.0
2019-Apr-25 04:30N 49°40' W 001°33'0 0.0
2019-Apr-25 04:00N 49°40' W 001°33'0 0.0
2019-Apr-25 03:30N 49°40' W 001°33'0 0.0
2019-Apr-25 03:00N 49°40' W 001°33'0 0.0
2019-Apr-25 02:30N 49°40' W 001°33'0 0.0
2019-Apr-25 02:00N 49°40' W 001°33'0 0.0
2019-Apr-25 01:30N 49°40' W 001°33'0 0.0
2019-Apr-25 01:00N 49°40' W 001°33'0 0.0
2019-Apr-25 00:27N 49°40' W 001°33'0 0.0
2019-Apr-25 00:00N 49°40' W 001°33'0 0.0
2019-Apr-24 23:30N 49°40' W 001°33'0 0.0
2019-Apr-24 23:00N 49°40' W 001°33'0 0.0
2019-Apr-24 22:30N 49°40' W 001°33'0 0.0
2019-Apr-24 22:00N 49°40' W 001°33'0 0.1
2019-Apr-24 21:30N 49°40' W 001°33'0 0.0
2019-Apr-24 21:00N 49°40' W 001°33'0 0.0
2019-Apr-24 20:30N 49°40' W 001°33'0 0.1
2019-Apr-24 20:00N 49°40' W 001°33'0 0.0
2019-Apr-24 19:30N 49°40' W 001°33'0 0.2
2019-Apr-24 19:00N 49°40' W 001°33'0 0.1
2019-Apr-24 18:30N 49°40' W 001°33'0 0.0
2019-Apr-24 17:57N 49°40' W 001°33'0 0.0
2019-Apr-24 17:30N 49°40' W 001°33'0 0.0
2019-Apr-24 17:00N 49°40' W 001°33'0 0.0
2019-Apr-24 16:30N 49°40' W 001°33'0 0.0
2019-Apr-24 16:00N 49°40' W 001°33'0 0.0
2019-Apr-24 15:30N 49°40' W 001°33'0 0.0
2019-Apr-24 15:00N 49°40' W 001°33'0 0.0
2019-Apr-24 14:30N 49°40' W 001°33'0 0.0
2019-Apr-24 14:00N 49°40' W 001°33'0 0.0
2019-Apr-24 13:31N 49°40' W 001°33'1 1.2
2019-Apr-24 13:00N 49°41' W 001°33'3 5.8
2019-Apr-24 12:31N 49°44' W 001°33'2 3.9
2019-Apr-24 12:00N 49°45' W 001°36'3 5.8
2019-Apr-24 11:31N 49°46' W 001°40'4 7.1
2019-Apr-24 11:00N 49°46' W 001°45'4 7.5
2019-Apr-24 10:30N 49°47' W 001°51'4 8.1
2019-Apr-24 10:00N 49°48' W 001°57'4 6.3
2019-Apr-24 09:27N 49°47' W 002°03'3 5.9
2019-Apr-24 08:54N 49°46' W 002°07'3 4.5
2019-Apr-24 08:10N 49°44' W 002°11'0 0.1
2019-Apr-24 07:37N 49°44' W 002°11'0 0.0
2019-Apr-24 07:25N 49°44' W 002°11'0 0.0
2019-Apr-24 06:31N 49°44' W 002°11'0 0.0
2019-Apr-24 06:13N 49°44' W 002°11'0 0.1
2019-Apr-24 05:37N 49°44' W 002°12'0 0.1
2019-Apr-24 05:25N 49°44' W 002°12'0 0.0
2019-Apr-24 04:49N 49°44' W 002°12'0 0.0
2019-Apr-24 04:25N 49°44' W 002°12'0 0.0
2019-Apr-24 03:49N 49°44' W 002°12'0 0.0
2019-Apr-24 03:31N 49°44' W 002°12'0 0.0
2019-Apr-24 03:01N 49°44' W 002°12'0 0.0
2019-Apr-24 02:30N 49°44' W 002°12'0 0.0
2019-Apr-24 01:55N 49°44' W 002°12'0 0.0
2019-Apr-24 01:18N 49°44' W 002°12'0 0.0
2019-Apr-24 01:00N 49°44' W 002°12'0 0.0
2019-Apr-24 00:06N 49°44' W 002°12'0 0.1
2019-Apr-23 23:54N 49°44' W 002°12'0 0.0
2019-Apr-23 23:18N 49°44' W 002°12'0 0.0
2019-Apr-23 22:54N 49°44' W 002°12'0 0.0
2019-Apr-23 20:12N 49°44' W 002°12'0 0.0
2019-Apr-23 19:48N 49°44' W 002°12'0 0.0
2019-Apr-23 19:24N 49°44' W 002°12'0 0.0
2019-Apr-23 18:48N 49°44' W 002°12'0 0.0
2019-Apr-23 18:12N 49°44' W 002°12'0 0.0
2019-Apr-23 17:06N 49°44' W 002°12'0 0.0
2019-Apr-23 16:30N 49°44' W 002°12'0 0.0
2019-Apr-23 15:18N 49°44' W 002°12'0 0.0
2019-Apr-23 14:18N 49°44' W 002°12'0 0.0
2019-Apr-23 14:00N 49°44' W 002°12'0 0.0
2019-Apr-23 13:12N 49°44' W 002°12'0 0.0
2019-Apr-23 12:36N 49°44' W 002°12'0 0.1
2019-Apr-23 12:30N 49°44' W 002°12'0 0.0
2019-Apr-23 11:42N 49°44' W 002°12'0 0.0
2019-Apr-23 11:06N 49°44' W 002°12'0 0.0
2019-Apr-23 10:03N 49°44' W 002°12'0 0.1
2019-Apr-23 09:57N 49°44' W 002°12'0 0.0
2019-Apr-23 09:30N 49°44' W 002°12'0 0.1
2019-Apr-23 08:54N 49°44' W 002°12'0 0.0
2019-Apr-23 08:27N 49°44' W 002°12'0 0.0
2019-Apr-23 08:00N 49°44' W 002°12'0 0.0
2019-Apr-23 07:30N 49°44' W 002°12'0 0.0
2019-Apr-23 06:54N 49°44' W 002°12'0 0.0
2019-Apr-23 06:30N 49°44' W 002°12'0 0.1
2019-Apr-23 05:57N 49°44' W 002°12'0 0.1
2019-Apr-23 05:30N 49°44' W 002°12'0 0.0
2019-Apr-23 04:57N 49°44' W 002°12'0 0.0
2019-Apr-23 04:30N 49°44' W 002°12'0 0.0
2019-Apr-23 03:57N 49°44' W 002°12'0 0.0
2019-Apr-23 03:27N 49°44' W 002°12'0 0.0
2019-Apr-23 02:54N 49°44' W 002°12'0 0.0
2019-Apr-23 02:24N 49°44' W 002°12'0 0.0
2019-Apr-23 01:54N 49°44' W 002°12'0 0.0
2019-Apr-23 01:30N 49°44' W 002°12'0 0.1
2019-Apr-23 01:00N 49°44' W 002°12'0 0.1
2019-Apr-23 00:30N 49°44' W 002°12'0 0.0
2019-Apr-23 00:00N 49°44' W 002°12'0 0.0
2019-Apr-22 23:24N 49°44' W 002°12'0 0.0
2019-Apr-22 22:36N 49°44' W 002°12'0 0.1
2019-Apr-22 22:30N 49°44' W 002°12'0 0.0
2019-Apr-22 22:00N 49°44' W 002°12'0 0.0
2019-Apr-22 21:27N 49°44' W 002°12'0 0.0
2019-Apr-22 21:00N 49°44' W 002°12'0 0.0
2019-Apr-22 20:24N 49°44' W 002°12'0 0.0
2019-Apr-22 19:54N 49°44' W 002°12'0 0.0
2019-Apr-22 18:54N 49°44' W 002°12'0 0.0
2019-Apr-22 17:54N 49°44' W 002°12'0 0.0
2019-Apr-22 17:18N 49°44' W 002°12'0 0.0
2019-Apr-22 16:54N 49°44' W 002°12'0 0.0
2019-Apr-22 15:54N 49°44' W 002°12'0 0.2
2019-Apr-22 15:19N 49°44' W 002°11'2 6.9
2019-Apr-22 15:00N 49°46' W 002°09'611.4
2019-Apr-22 14:28N 49°48' W 002°01'510.4
2019-Apr-22 14:01N 49°49' W 001°54'5 9.9
2019-Apr-22 13:30N 49°51' W 001°47'4 8.5
2019-Apr-22 13:00N 49°52' W 001°40'3 5.1
2019-Apr-22 12:31N 49°53' W 001°37'1 1.5
2019-Apr-22 12:00N 49°53' W 001°38'1 1.4
2019-Apr-22 11:31N 49°54' W 001°39'1 1.1
2019-Apr-22 11:01N 49°54' W 001°40'1 1.5
2019-Apr-22 10:31N 49°54' W 001°41'1 2.2
2019-Apr-22 10:01N 49°55' W 001°42'2 3.2
2019-Apr-22 09:30N 49°56' W 001°44'2 3.1
2019-Apr-22 09:00N 49°57' W 001°46'2 3.0
2019-Apr-22 08:31N 49°58' W 001°47'1 2.3
2019-Apr-22 08:00N 49°59' W 001°48'1 2.6
2019-Apr-22 07:30N 50°01' W 001°48'1 2.3
2019-Apr-22 07:00N 50°02' W 001°47'1 3.1
2019-Apr-22 06:30N 50°03' W 001°46'2 3.8
2019-Apr-22 06:01N 50°04' W 001°43'2 4.9
2019-Apr-22 05:31N 50°05' W 001°40'3 5.5
2019-Apr-22 05:01N 50°06' W 001°36'3 6.2
2019-Apr-22 04:31N 50°07' W 001°31'3 6.3
2019-Apr-22 04:00N 50°08' W 001°27'3 5.9
2019-Apr-22 03:30N 50°09' W 001°22'3 5.6
2019-Apr-22 03:01N 50°10' W 001°18'3 5.4
2019-Apr-22 02:30N 50°11' W 001°14'2 4.9
2019-Apr-22 02:01N 50°12' W 001°11'2 3.6
2019-Apr-22 01:30N 50°13' W 001°08'2 3.6
2019-Apr-22 01:01N 50°14' W 001°06'2 3.4
2019-Apr-22 00:30N 50°15' W 001°05'1 2.6
2019-Apr-22 00:01N 50°17' W 001°04'1 2.3
2019-Apr-21 23:31N 50°18' W 001°04'1 2.5
2019-Apr-21 23:01N 50°19' W 001°04'2 3.3
2019-Apr-21 22:31N 50°21' W 001°05'2 3.8
2019-Apr-21 22:01N 50°22' W 001°07'2 3.9
2019-Apr-21 21:30N 50°24' W 001°08'2 3.2
2019-Apr-21 21:01N 50°26' W 001°08'2 3.1
2019-Apr-21 20:31N 50°27' W 001°09'1 2.8
2019-Apr-21 20:01N 50°29' W 001°09'1 2.9
2019-Apr-21 19:30N 50°30' W 001°09'1 2.9
2019-Apr-21 19:00N 50°31' W 001°08'2 3.7
2019-Apr-21 18:31N 50°33' W 001°06'3 5.3
2019-Apr-21 18:01N 50°35' W 001°04'2 4.3
2019-Apr-21 17:31N 50°37' W 001°02'3 5.6
2019-Apr-21 17:00N 50°40' W 001°02'3 6.5
2019-Apr-21 16:30N 50°43' W 001°02'4 7.5
2019-Apr-21 16:01N 50°46' W 001°05'2 3.1
2019-Apr-21 15:28N 50°48' W 001°07'0 0.0
2019-Apr-21 14:58N 50°48' W 001°07'0 0.0
2019-Apr-21 14:28N 50°48' W 001°07'0 0.0
2019-Apr-21 13:58N 50°48' W 001°07'0 0.0
2019-Apr-21 13:28N 50°48' W 001°07'0 0.0
2019-Apr-21 12:58N 50°48' W 001°07'0 0.0
2019-Apr-21 12:28N 50°48' W 001°07'0 0.0
2019-Apr-21 11:58N 50°48' W 001°07'0 0.0
2019-Apr-21 11:28N 50°48' W 001°07'0 0.0
2019-Apr-21 10:58N 50°48' W 001°07'0 0.0
2019-Apr-21 10:28N 50°48' W 001°07'0 0.0
2019-Apr-21 09:58N 50°48' W 001°07'0 0.0
2019-Apr-21 09:28N 50°48' W 001°07'0 0.0
2019-Apr-21 08:58N 50°48' W 001°07'0 0.0
2019-Apr-21 08:28N 50°48' W 001°07'0 0.0
2019-Apr-21 07:58N 50°48' W 001°07'0 0.0
2019-Apr-21 07:28N 50°48' W 001°07'0 0.0
2019-Apr-21 06:58N 50°48' W 001°07'0 0.0
2019-Apr-21 06:28N 50°48' W 001°07'0 0.0
2019-Apr-21 05:58N 50°48' W 001°07'0 0.0
2019-Apr-21 05:28N 50°48' W 001°07'0 0.0
2019-Apr-21 04:58N 50°48' W 001°07'0 0.0
2019-Apr-21 04:28N 50°48' W 001°07'0 0.0
2019-Apr-21 03:58N 50°48' W 001°07'0 0.0
2019-Apr-21 03:28N 50°48' W 001°07'0 0.0
2019-Apr-21 02:58N 50°48' W 001°07'0 0.0
2019-Apr-21 02:28N 50°48' W 001°07'0 0.0
2019-Apr-21 01:58N 50°48' W 001°07'0 0.0
2019-Apr-21 01:28N 50°48' W 001°07'0 0.0
2019-Apr-21 00:58N 50°48' W 001°07'0 0.0
2019-Apr-21 00:28N 50°48' W 001°07'0 0.0
2019-Apr-21 00:01N 50°48' W 001°07'0 0.0
2019-Apr-20 23:31N 50°48' W 001°07'0 0.0
2019-Apr-20 22:58N 50°48' W 001°07'0 0.0
2019-Apr-20 22:28N 50°48' W 001°07'0 0.0
2019-Apr-20 22:01N 50°48' W 001°07'0 0.0
2019-Apr-20 21:30N 50°48' W 001°07'0 0.0
2019-Apr-20 21:00N 50°48' W 001°07'0 0.0
2019-Apr-20 20:31N 50°48' W 001°07'0 0.0
2019-Apr-20 20:00N 50°48' W 001°07'0 0.0
2019-Apr-20 19:31N 50°48' W 001°07'0 0.0
2019-Apr-20 19:00N 50°48' W 001°07'0 0.0
2019-Apr-20 18:30N 50°48' W 001°07'0 0.0
2019-Apr-20 18:00N 50°48' W 001°07'0 0.0
2019-Apr-20 17:30N 50°48' W 001°07'0 0.0
2019-Apr-20 17:00N 50°48' W 001°07'0 0.0
2019-Apr-20 16:30N 50°48' W 001°07'0 0.0
2019-Apr-20 16:01N 50°48' W 001°07'1 2.0
2019-Apr-20 15:30N 50°47' W 001°06'2 3.5
2019-Apr-20 15:00N 50°45' W 001°07'2 4.1
2019-Apr-20 14:31N 50°46' W 001°10'2 4.7
2019-Apr-20 14:01N 50°47' W 001°14'3 5.9
2019-Apr-20 13:30N 50°49' W 001°18'3 6.2
2019-Apr-20 13:01N 50°51' W 001°21'3 5.0
2019-Apr-20 12:28N 50°53' W 001°24'0 0.0
2019-Apr-20 11:58N 50°53' W 001°24'0 0.0
2019-Apr-20 11:28N 50°53' W 001°24'0 0.0
2019-Apr-20 10:58N 50°53' W 001°24'0 0.0
2019-Apr-20 10:28N 50°53' W 001°24'0 0.0
2019-Apr-20 09:58N 50°53' W 001°24'0 0.0
2019-Apr-20 09:28N 50°53' W 001°24'0 0.0
2019-Apr-20 08:58N 50°53' W 001°24'0 0.0
2019-Apr-20 08:28N 50°53' W 001°24'0 0.0
2019-Apr-20 07:58N 50°53' W 001°24'0 0.0
2019-Apr-20 07:28N 50°53' W 001°24'0 0.0
2019-Apr-20 06:58N 50°53' W 001°24'0 0.0
2019-Apr-20 06:28N 50°53' W 001°24'0 0.0
2019-Apr-20 05:58N 50°53' W 001°24'0 0.0
2019-Apr-20 05:28N 50°53' W 001°24'0 0.0
2019-Apr-20 04:58N 50°53' W 001°24'0 0.0
2019-Apr-20 04:28N 50°53' W 001°24'0 0.0
2019-Apr-20 03:58N 50°53' W 001°24'0 0.0
2019-Apr-20 03:28N 50°53' W 001°24'0 0.0
2019-Apr-20 02:58N 50°53' W 001°24'0 0.0
2019-Apr-20 02:28N 50°53' W 001°24'0 0.0
2019-Apr-20 01:58N 50°53' W 001°24'0 0.0
2019-Apr-20 01:28N 50°53' W 001°24'0 0.0
2019-Apr-20 00:58N 50°53' W 001°24'0 0.0
2019-Apr-20 00:28N 50°53' W 001°24'0 0.0
2019-Apr-19 23:58N 50°53' W 001°24'0 0.0
2019-Apr-19 23:28N 50°53' W 001°24'0 0.0
2019-Apr-19 22:58N 50°53' W 001°24'0 0.0
2019-Apr-19 22:28N 50°53' W 001°24'0 0.0
2019-Apr-19 21:58N 50°53' W 001°24'0 0.0
2019-Apr-19 21:28N 50°53' W 001°24'0 0.0
2019-Apr-19 20:52N 50°53' W 001°24'0 0.0
2019-Apr-19 20:28N 50°53' W 001°24'0 0.0
2019-Apr-19 19:58N 50°53' W 001°24'0 0.0
2019-Apr-19 19:28N 50°53' W 001°24'0 0.0
2019-Apr-19 18:58N 50°53' W 001°24'0 0.0
2019-Apr-19 18:28N 50°53' W 001°24'0 0.0
2019-Apr-19 17:58N 50°53' W 001°24'0 0.0
2019-Apr-19 17:28N 50°53' W 001°24'0 0.0
2019-Apr-19 16:58N 50°53' W 001°24'0 0.0
2019-Apr-19 16:31N 50°53' W 001°24'0 0.0
2019-Apr-19 16:01N 50°53' W 001°24'0 0.0
2019-Apr-19 15:30N 50°53' W 001°24'0 0.0
2019-Apr-19 15:00N 50°53' W 001°24'0 0.0
2019-Apr-19 14:30N 50°53' W 001°24'0 0.0
2019-Apr-19 14:00N 50°53' W 001°24'0 0.0
2019-Apr-19 13:30N 50°53' W 001°24'0 0.0
2019-Apr-19 13:00N 50°53' W 001°24'0 0.0
2019-Apr-19 12:30N 50°53' W 001°24'0 0.0
2019-Apr-19 12:00N 50°53' W 001°24'0 0.0
2019-Apr-19 11:30N 50°53' W 001°24'0 0.0
2019-Apr-19 11:00N 50°53' W 001°24'0 0.0
2019-Apr-19 10:30N 50°53' W 001°24'0 0.0
2019-Apr-19 09:54N 50°53' W 001°24'0 0.0
2019-Apr-19 09:30N 50°53' W 001°24'0 0.0
2019-Apr-19 08:57N 50°53' W 001°24'0 0.0
2019-Apr-19 08:27N 50°53' W 001°24'0 0.0
2019-Apr-19 08:00N 50°53' W 001°24'0 0.0
2019-Apr-19 07:30N 50°53' W 001°24'0 0.0
2019-Apr-19 07:00N 50°53' W 001°24'0 0.0
2019-Apr-19 06:30N 50°53' W 001°24'0 0.0
2019-Apr-19 05:51N 50°53' W 001°24'0 0.0
2019-Apr-19 05:30N 50°53' W 001°24'0 0.0
2019-Apr-19 05:00N 50°53' W 001°24'0 0.0
2019-Apr-19 04:30N 50°53' W 001°24'0 0.0
2019-Apr-19 04:00N 50°53' W 001°24'0 0.0
2019-Apr-19 03:09N 50°53' W 001°24'0 0.0
2019-Apr-19 03:00N 50°53' W 001°24'0 0.0
2019-Apr-19 02:30N 50°53' W 001°24'0 0.0
2019-Apr-19 02:00N 50°53' W 001°24'0 0.0
2019-Apr-19 01:27N 50°53' W 001°24'0 0.0
2019-Apr-19 00:57N 50°53' W 001°24'0 0.0
2019-Apr-19 00:27N 50°53' W 001°24'0 0.0
2019-Apr-19 00:00N 50°53' W 001°24'0 0.0
2019-Apr-18 23:30N 50°53' W 001°24'0 0.0
2019-Apr-18 22:57N 50°53' W 001°24'0 0.0
2019-Apr-18 22:24N 50°53' W 001°24'0 0.0
2019-Apr-18 21:57N 50°53' W 001°24'0 0.0
2019-Apr-18 21:30N 50°53' W 001°24'0 0.0
2019-Apr-18 21:00N 50°53' W 001°24'0 0.0
2019-Apr-18 20:30N 50°53' W 001°24'0 0.0
2019-Apr-18 19:57N 50°53' W 001°24'0 0.0
2019-Apr-18 19:30N 50°53' W 001°24'0 0.0
2019-Apr-18 18:57N 50°53' W 001°24'0 0.0
2019-Apr-18 18:30N 50°53' W 001°24'0 0.0
2019-Apr-18 18:00N 50°53' W 001°24'0 0.0
2019-Apr-18 17:30N 50°53' W 001°24'0 0.0
2019-Apr-18 16:57N 50°53' W 001°24'0 0.0
2019-Apr-18 16:30N 50°53' W 001°24'0 0.0
2019-Apr-18 15:48N 50°53' W 001°24'0 0.0
2019-Apr-18 15:30N 50°53' W 001°24'0 0.0
2019-Apr-18 15:00N 50°53' W 001°24'0 0.0
2019-Apr-18 14:30N 50°53' W 001°24'0 0.0
2019-Apr-18 14:00N 50°53' W 001°24'0 0.0
2019-Apr-18 13:30N 50°53' W 001°24'0 0.0
2019-Apr-18 13:00N 50°53' W 001°24'0 0.0
2019-Apr-18 12:27N 50°53' W 001°24'0 0.0
2019-Apr-18 11:51N 50°53' W 001°24'0 0.0
2019-Apr-18 11:30N 50°53' W 001°24'0 0.0
2019-Apr-18 11:00N 50°53' W 001°24'0 0.0
2019-Apr-18 10:30N 50°53' W 001°24'0 0.0
2019-Apr-18 10:00N 50°53' W 001°24'0 0.0
2019-Apr-18 09:27N 50°53' W 001°24'0 0.0
2019-Apr-18 08:57N 50°53' W 001°24'0 0.0
2019-Apr-18 08:30N 50°53' W 001°24'0 0.0
2019-Apr-18 08:00N 50°53' W 001°24'0 0.0
2019-Apr-18 07:24N 50°53' W 001°24'0 0.0
2019-Apr-18 06:57N 50°53' W 001°24'0 0.0
2019-Apr-18 06:30N 50°53' W 001°24'0 0.0
2019-Apr-18 06:00N 50°53' W 001°24'0 0.0
2019-Apr-18 05:30N 50°53' W 001°24'0 0.0
2019-Apr-18 05:00N 50°53' W 001°24'0 0.0
2019-Apr-18 04:24N 50°53' W 001°24'0 0.0
2019-Apr-18 03:57N 50°53' W 001°24'0 0.0
2019-Apr-18 03:27N 50°53' W 001°24'0 0.0
2019-Apr-18 02:54N 50°53' W 001°24'0 0.0
2019-Apr-18 02:30N 50°53' W 001°24'0 0.0
2019-Apr-18 02:00N 50°53' W 001°24'0 0.0
2019-Apr-18 01:29N 50°53' W 001°24'0 0.0
2019-Apr-18 00:59N 50°53' W 001°24'0 0.0
2019-Apr-18 00:29N 50°53' W 001°24'0 0.0
2019-Apr-17 23:59N 50°53' W 001°24'0 0.0
2019-Apr-17 23:26N 50°53' W 001°24'0 0.0
2019-Apr-17 22:56N 50°53' W 001°24'0 0.0
2019-Apr-17 22:29N 50°53' W 001°24'0 0.0
2019-Apr-17 21:59N 50°53' W 001°24'0 0.0
2019-Apr-17 21:29N 50°53' W 001°24'0 0.0
2019-Apr-17 20:59N 50°53' W 001°24'0 0.0
2019-Apr-17 20:29N 50°53' W 001°24'0 0.0
2019-Apr-17 19:53N 50°53' W 001°24'0 0.0
2019-Apr-17 19:29N 50°53' W 001°24'0 0.0
2019-Apr-17 18:59N 50°53' W 001°24'0 0.0
2019-Apr-17 18:29N 50°53' W 001°24'0 0.0
2019-Apr-17 17:59N 50°53' W 001°24'0 0.0
2019-Apr-17 17:29N 50°53' W 001°24'0 0.0
2019-Apr-17 16:56N 50°53' W 001°24'0 0.0
2019-Apr-17 16:23N 50°53' W 001°24'0 0.0
2019-Apr-17 15:59N 50°53' W 001°24'0 0.0
2019-Apr-17 15:14N 50°53' W 001°24'0 0.0
2019-Apr-17 14:59N 50°53' W 001°24'0 0.0
2019-Apr-17 14:29N 50°53' W 001°24'0 0.0
2019-Apr-17 13:56N 50°53' W 001°24'0 0.0
2019-Apr-17 13:23N 50°53' W 001°24'0 0.0
2019-Apr-17 12:59N 50°53' W 001°24'0 0.0
2019-Apr-17 12:29N 50°53' W 001°24'0 0.0
2019-Apr-17 11:59N 50°53' W 001°24'0 0.0
2019-Apr-17 11:29N 50°53' W 001°24'0 0.0
2019-Apr-17 10:59N 50°53' W 001°24'0 0.0
2019-Apr-17 10:29N 50°53' W 001°24'0 0.0
2019-Apr-17 09:56N 50°53' W 001°24'0 0.0
2019-Apr-17 09:29N 50°53' W 001°24'0 0.0
2019-Apr-17 08:56N 50°53' W 001°24'0 0.0
2019-Apr-17 08:26N 50°53' W 001°24'0 0.0
2019-Apr-17 07:59N 50°53' W 001°24'0 0.0
2019-Apr-17 07:29N 50°53' W 001°24'0 0.0
2019-Apr-17 06:59N 50°53' W 001°24'0 0.0
2019-Apr-17 06:29N 50°53' W 001°24'0 0.0
2019-Apr-17 05:59N 50°53' W 001°24'0 0.0
2019-Apr-17 05:29N 50°53' W 001°24'0 0.0
2019-Apr-17 04:59N 50°53' W 001°24'0 0.0
2019-Apr-17 04:23N 50°53' W 001°24'0 0.0
2019-Apr-17 03:53N 50°53' W 001°24'0 0.0
2019-Apr-17 03:29N 50°53' W 001°24'0 0.0
2019-Apr-17 02:59N 50°53' W 001°24'0 0.0
2019-Apr-17 02:26N 50°53' W 001°24'0 0.0
2019-Apr-17 01:59N 50°53' W 001°24'0 0.0
2019-Apr-17 01:29N 50°53' W 001°24'0 0.0
2019-Apr-17 00:53N 50°53' W 001°24'0 0.0
2019-Apr-17 00:26N 50°53' W 001°24'0 0.0
2019-Apr-16 23:59N 50°53' W 001°24'0 0.0
2019-Apr-16 23:29N 50°53' W 001°24'0 0.0
2019-Apr-16 22:59N 50°53' W 001°24'0 0.0
2019-Apr-16 22:29N 50°53' W 001°24'0 0.0
2019-Apr-16 21:59N 50°53' W 001°24'0 0.0
2019-Apr-16 21:29N 50°53' W 001°24'0 0.0
2019-Apr-16 20:59N 50°53' W 001°24'0 0.0
2019-Apr-16 20:29N 50°53' W 001°24'0 0.0
2019-Apr-16 19:59N 50°53' W 001°24'0 0.0
2019-Apr-16 19:29N 50°53' W 001°24'0 0.0
2019-Apr-16 18:56N 50°53' W 001°24'0 0.0
2019-Apr-16 18:20N 50°53' W 001°24'0 0.0
2019-Apr-16 17:59N 50°53' W 001°24'0 0.0
2019-Apr-16 17:29N 50°53' W 001°24'0 0.0
2019-Apr-16 16:59N 50°53' W 001°24'0 0.0
2019-Apr-16 16:20N 50°53' W 001°24'0 0.0
2019-Apr-16 15:59N 50°53' W 001°24'0 0.0
2019-Apr-16 15:29N 50°53' W 001°24'0 0.0
2019-Apr-16 14:56N 50°53' W 001°24'0 0.0
2019-Apr-16 14:26N 50°53' W 001°24'0 0.0
2019-Apr-16 13:59N 50°53' W 001°24'0 0.0
2019-Apr-16 13:23N 50°53' W 001°24'0 0.0
2019-Apr-16 12:56N 50°53' W 001°24'0 0.0
2019-Apr-16 12:29N 50°53' W 001°24'0 0.0
2019-Apr-16 11:59N 50°53' W 001°24'0 0.0
2019-Apr-16 11:22N 50°53' W 001°24'0 0.0
2019-Apr-16 10:58N 50°53' W 001°24'0 0.0
2019-Apr-16 10:25N 50°53' W 001°24'0 0.0
2019-Apr-16 09:58N 50°53' W 001°24'0 0.0
2019-Apr-16 09:28N 50°53' W 001°24'0 0.0
2019-Apr-16 08:58N 50°53' W 001°24'0 0.0
2019-Apr-16 08:28N 50°53' W 001°24'0 0.0
2019-Apr-16 07:55N 50°53' W 001°24'0 0.0
2019-Apr-16 07:29N 50°53' W 001°24'0 0.0
2019-Apr-16 06:56N 50°53' W 001°24'0 0.0
2019-Apr-16 06:29N 50°53' W 001°24'0 0.0
2019-Apr-16 05:59N 50°53' W 001°24'0 0.0
2019-Apr-16 05:29N 50°53' W 001°24'0 0.0
2019-Apr-16 04:59N 50°53' W 001°24'0 0.0
2019-Apr-16 04:26N 50°53' W 001°24'0 0.0
2019-Apr-16 03:59N 50°53' W 001°24'0 0.0
2019-Apr-16 03:29N 50°53' W 001°24'0 0.0
2019-Apr-16 02:53N 50°53' W 001°24'0 0.0
2019-Apr-16 02:29N 50°53' W 001°24'0 0.0
2019-Apr-16 01:56N 50°53' W 001°24'0 0.0
2019-Apr-16 01:29N 50°53' W 001°24'0 0.0
2019-Apr-16 00:56N 50°53' W 001°24'0 0.0
2019-Apr-16 00:29N 50°53' W 001°24'0 0.0
2019-Apr-15 23:59N 50°53' W 001°24'0 0.0
2019-Apr-15 23:29N 50°53' W 001°24'0 0.0
2019-Apr-15 22:59N 50°53' W 001°24'0 0.0
2019-Apr-15 22:29N 50°53' W 001°24'0 0.0
2019-Apr-15 21:59N 50°53' W 001°24'0 0.0
2019-Apr-15 21:26N 50°53' W 001°24'0 0.0
2019-Apr-15 20:59N 50°53' W 001°24'0 0.0
2019-Apr-15 20:29N 50°53' W 001°24'0 0.0
2019-Apr-15 19:59N 50°53' W 001°24'0 0.0
2019-Apr-15 19:29N 50°53' W 001°24'0 0.0
2019-Apr-15 18:59N 50°53' W 001°24'0 0.0
2019-Apr-15 18:29N 50°53' W 001°24'0 0.0
2019-Apr-15 18:00N 50°53' W 001°24'0 0.4
2019-Apr-15 17:30N 50°53' W 001°24'2 5.0
2019-Apr-15 17:01N 50°51' W 001°21'4 7.8
2019-Apr-15 16:30N 50°48' W 001°17'4 8.0
2019-Apr-15 16:00N 50°46' W 001°11'4 7.7
2019-Apr-15 15:31N 50°45' W 001°05'3 5.3
2019-Apr-15 14:59N 50°48' W 001°07'0 0.0
2019-Apr-15 14:30N 50°48' W 001°07'0 0.0
2019-Apr-15 14:00N 50°48' W 001°07'0 0.0
2019-Apr-15 13:30N 50°48' W 001°07'0 0.0
2019-Apr-15 13:00N 50°48' W 001°07'0 0.0
2019-Apr-15 12:31N 50°48' W 001°07'  
Track history (hours):
 
Tides and Currents Weather Stations Pressure Air Temp Water Temp Dewpoint Dewpoint Depression Visibility Wind Speed Wind Dir Waves Ship Positions

Tenacious (United Kingdom)

Ship's website: http://www.jst.org.uk/

Last reported at 2019-Apr-25 12:00 UTC. Time now 2019-Apr-25 12:20 UTC.
Position N 50°04' W 001°09'.

Length 65 m; beam 10.6 m; draft 4.6 m.

Type: Sailing vessel. MMSI: 235000230.

Date/timePositionNaut miles runAvg speedWind from/ knotsBaromVisibWave heightAir tempDewpointWater temp
2019-Apr-25 12:00N 50°04' W 001°09'2 4.7
2019-Apr-25 11:30N 50°03' W 001°12'3 5.5
2019-Apr-25 11:00N 50°01' W 001°15'3 5.7
2019-Apr-25 10:30N 49°60' W 001°19'3 6.3
2019-Apr-25 10:00N 49°58' W 001°23'3 6.9
2019-Apr-25 09:30N 49°56' W 001°27'3 6.3
2019-Apr-25 09:00N 49°53' W 001°30'3 5.9
2019-Apr-25 08:30N 49°50' W 001°32'3 5.4
2019-Apr-25 08:00N 49°48' W 001°32'2 4.6
2019-Apr-25 07:30N 49°45' W 001°32'2 4.0
2019-Apr-25 07:00N 49°43' W 001°32'2 3.5
2019-Apr-25 06:30N 49°42' W 001°32'1 2.7
2019-Apr-25 06:00N 49°40' W 001°33'0 0.1
2019-Apr-25 05:30N 49°40' W 001°33'0 0.0
2019-Apr-25 05:00N 49°40' W 001°33'0 0.0
2019-Apr-25 04:30N 49°40' W 001°33'0 0.0
2019-Apr-25 04:00N 49°40' W 001°33'0 0.0
2019-Apr-25 03:30N 49°40' W 001°33'0 0.0
2019-Apr-25 03:00N 49°40' W 001°33'0 0.0
2019-Apr-25 02:30N 49°40' W 001°33'0 0.0
2019-Apr-25 02:00N 49°40' W 001°33'0 0.0
2019-Apr-25 01:30N 49°40' W 001°33'0 0.0
2019-Apr-25 01:00N 49°40' W 001°33'0 0.0
2019-Apr-25 00:27N 49°40' W 001°33'0 0.0
2019-Apr-25 00:00N 49°40' W 001°33'0 0.0
2019-Apr-24 23:30N 49°40' W 001°33'0 0.0
2019-Apr-24 23:00N 49°40' W 001°33'0 0.0
2019-Apr-24 22:30N 49°40' W 001°33'0 0.0
2019-Apr-24 22:00N 49°40' W 001°33'0 0.1
2019-Apr-24 21:30N 49°40' W 001°33'0 0.0
2019-Apr-24 21:00N 49°40' W 001°33'0 0.0
2019-Apr-24 20:30N 49°40' W 001°33'0 0.1
2019-Apr-24 20:00N 49°40' W 001°33'0 0.0
2019-Apr-24 19:30N 49°40' W 001°33'0 0.2
2019-Apr-24 19:00N 49°40' W 001°33'0 0.1
2019-Apr-24 18:30N 49°40' W 001°33'0 0.0
2019-Apr-24 17:57N 49°40' W 001°33'0 0.0
2019-Apr-24 17:30N 49°40' W 001°33'0 0.0
2019-Apr-24 17:00N 49°40' W 001°33'0 0.0
2019-Apr-24 16:30N 49°40' W 001°33'0 0.0
2019-Apr-24 16:00N 49°40' W 001°33'0 0.0
2019-Apr-24 15:30N 49°40' W 001°33'0 0.0
2019-Apr-24 15:00N 49°40' W 001°33'0 0.0
2019-Apr-24 14:30N 49°40' W 001°33'0 0.0
2019-Apr-24 14:00N 49°40' W 001°33'0 0.0
2019-Apr-24 13:31N 49°40' W 001°33'1 1.2
2019-Apr-24 13:00N 49°41' W 001°33'3 5.8
2019-Apr-24 12:31N 49°44' W 001°33'2 3.9
2019-Apr-24 12:00N 49°45' W 001°36'3 5.8
2019-Apr-24 11:31N 49°46' W 001°40'4 7.1
2019-Apr-24 11:00N 49°46' W 001°45'4 7.5
2019-Apr-24 10:30N 49°47' W 001°51'4 8.1
2019-Apr-24 10:00N 49°48' W 001°57'4 6.3
2019-Apr-24 09:27N 49°47' W 002°03'3 5.9
2019-Apr-24 08:54N 49°46' W 002°07'3 4.5
2019-Apr-24 08:10N 49°44' W 002°11'0 0.1
2019-Apr-24 07:37N 49°44' W 002°11'0 0.0
2019-Apr-24 07:25N 49°44' W 002°11'0 0.0
2019-Apr-24 06:31N 49°44' W 002°11'0 0.0
2019-Apr-24 06:13N 49°44' W 002°11'0 0.1
2019-Apr-24 05:37N 49°44' W 002°12'0 0.1
2019-Apr-24 05:25N 49°44' W 002°12'0 0.0
2019-Apr-24 04:49N 49°44' W 002°12'0 0.0
2019-Apr-24 04:25N 49°44' W 002°12'0 0.0
2019-Apr-24 03:49N 49°44' W 002°12'0 0.0
2019-Apr-24 03:31N 49°44' W 002°12'0 0.0
2019-Apr-24 03:01N 49°44' W 002°12'0 0.0
2019-Apr-24 02:30N 49°44' W 002°12'0 0.0
2019-Apr-24 01:55N 49°44' W 002°12'0 0.0
2019-Apr-24 01:18N 49°44' W 002°12'0 0.0
2019-Apr-24 01:00N 49°44' W 002°12'0 0.0
2019-Apr-24 00:06N 49°44' W 002°12'0 0.1
2019-Apr-23 23:54N 49°44' W 002°12'0 0.0
2019-Apr-23 23:18N 49°44' W 002°12'0 0.0
2019-Apr-23 22:54N 49°44' W 002°12'0 0.0
2019-Apr-23 20:12N 49°44' W 002°12'0 0.0
2019-Apr-23 19:48N 49°44' W 002°12'0 0.0
2019-Apr-23 19:24N 49°44' W 002°12'0 0.0
2019-Apr-23 18:48N 49°44' W 002°12'0 0.0
2019-Apr-23 18:12N 49°44' W 002°12'0 0.0
2019-Apr-23 17:06N 49°44' W 002°12'0 0.0
2019-Apr-23 16:30N 49°44' W 002°12'0 0.0
2019-Apr-23 15:18N 49°44' W 002°12'0 0.0
2019-Apr-23 14:18N 49°44' W 002°12'0 0.0
2019-Apr-23 14:00N 49°44' W 002°12'0 0.0
2019-Apr-23 13:12N 49°44' W 002°12'0 0.0
2019-Apr-23 12:36N 49°44' W 002°12'0 0.1
2019-Apr-23 12:30N 49°44' W 002°12'0 0.0
2019-Apr-23 11:42N 49°44' W 002°12'0 0.0
2019-Apr-23 11:06N 49°44' W 002°12'0 0.0
2019-Apr-23 10:03N 49°44' W 002°12'0 0.1
2019-Apr-23 09:57N 49°44' W 002°12'0 0.0
2019-Apr-23 09:30N 49°44' W 002°12'0 0.1
2019-Apr-23 08:54N 49°44' W 002°12'0 0.0
2019-Apr-23 08:27N 49°44' W 002°12'0 0.0
2019-Apr-23 08:00N 49°44' W 002°12'0 0.0
2019-Apr-23 07:30N 49°44' W 002°12'0 0.0
2019-Apr-23 06:54N 49°44' W 002°12'0 0.0
2019-Apr-23 06:30N 49°44' W 002°12'0 0.1
2019-Apr-23 05:57N 49°44' W 002°12'0 0.1
2019-Apr-23 05:30N 49°44' W 002°12'0 0.0
2019-Apr-23 04:57N 49°44' W 002°12'0 0.0
2019-Apr-23 04:30N 49°44' W 002°12'0 0.0
2019-Apr-23 03:57N 49°44' W 002°12'0 0.0
2019-Apr-23 03:27N 49°44' W 002°12'0 0.0
2019-Apr-23 02:54N 49°44' W 002°12'0 0.0
2019-Apr-23 02:24N 49°44' W 002°12'0 0.0
2019-Apr-23 01:54N 49°44' W 002°12'0 0.0
2019-Apr-23 01:30N 49°44' W 002°12'0 0.1
2019-Apr-23 01:00N 49°44' W 002°12'0 0.1
2019-Apr-23 00:30N 49°44' W 002°12'0 0.0
2019-Apr-23 00:00N 49°44' W 002°12'0 0.0
2019-Apr-22 23:24N 49°44' W 002°12'0 0.0
2019-Apr-22 22:36N 49°44' W 002°12'0 0.1
2019-Apr-22 22:30N 49°44' W 002°12'0 0.0
2019-Apr-22 22:00N 49°44' W 002°12'0 0.0
2019-Apr-22 21:27N 49°44' W 002°12'0 0.0
2019-Apr-22 21:00N 49°44' W 002°12'0 0.0
2019-Apr-22 20:24N 49°44' W 002°12'0 0.0
2019-Apr-22 19:54N 49°44' W 002°12'0 0.0
2019-Apr-22 18:54N 49°44' W 002°12'0 0.0
2019-Apr-22 17:54N 49°44' W 002°12'0 0.0
2019-Apr-22 17:18N 49°44' W 002°12'0 0.0
2019-Apr-22 16:54N 49°44' W 002°12'0 0.0
2019-Apr-22 15:54N 49°44' W 002°12'0 0.2
2019-Apr-22 15:19N 49°44' W 002°11'2 6.9
2019-Apr-22 15:00N 49°46' W 002°09'611.4
2019-Apr-22 14:28N 49°48' W 002°01'510.4
2019-Apr-22 14:01N 49°49' W 001°54'5 9.9
2019-Apr-22 13:30N 49°51' W 001°47'4 8.5
2019-Apr-22 13:00N 49°52' W 001°40'3 5.1
2019-Apr-22 12:31N 49°53' W 001°37'1 1.5
2019-Apr-22 12:00N 49°53' W 001°38'1 1.4
2019-Apr-22 11:31N 49°54' W 001°39'1 1.1
2019-Apr-22 11:01N 49°54' W 001°40'1 1.5
2019-Apr-22 10:31N 49°54' W 001°41'1 2.2
2019-Apr-22 10:01N 49°55' W 001°42'2 3.2
2019-Apr-22 09:30N 49°56' W 001°44'2 3.1
2019-Apr-22 09:00N 49°57' W 001°46'2 3.0
2019-Apr-22 08:31N 49°58' W 001°47'1 2.3
2019-Apr-22 08:00N 49°59' W 001°48'1 2.6
2019-Apr-22 07:30N 50°01' W 001°48'1 2.3
2019-Apr-22 07:00N 50°02' W 001°47'1 3.1
2019-Apr-22 06:30N 50°03' W 001°46'2 3.8
2019-Apr-22 06:01N 50°04' W 001°43'2 4.9
2019-Apr-22 05:31N 50°05' W 001°40'3 5.5
2019-Apr-22 05:01N 50°06' W 001°36'3 6.2
2019-Apr-22 04:31N 50°07' W 001°31'3 6.3
2019-Apr-22 04:00N 50°08' W 001°27'3 5.9
2019-Apr-22 03:30N 50°09' W 001°22'3 5.6
2019-Apr-22 03:01N 50°10' W 001°18'3 5.4
2019-Apr-22 02:30N 50°11' W 001°14'2 4.9
2019-Apr-22 02:01N 50°12' W 001°11'2 3.6
2019-Apr-22 01:30N 50°13' W 001°08'2 3.6
2019-Apr-22 01:01N 50°14' W 001°06'2 3.4
2019-Apr-22 00:30N 50°15' W 001°05'1 2.6
2019-Apr-22 00:01N 50°17' W 001°04'1 2.3
2019-Apr-21 23:31N 50°18' W 001°04'1 2.5
2019-Apr-21 23:01N 50°19' W 001°04'2 3.3
2019-Apr-21 22:31N 50°21' W 001°05'2 3.8
2019-Apr-21 22:01N 50°22' W 001°07'2 3.9
2019-Apr-21 21:30N 50°24' W 001°08'2 3.2
2019-Apr-21 21:01N 50°26' W 001°08'2 3.1
2019-Apr-21 20:31N 50°27' W 001°09'1 2.8
2019-Apr-21 20:01N 50°29' W 001°09'1 2.9
2019-Apr-21 19:30N 50°30' W 001°09'1 2.9
2019-Apr-21 19:00N 50°31' W 001°08'2 3.7
2019-Apr-21 18:31N 50°33' W 001°06'3 5.3
2019-Apr-21 18:01N 50°35' W 001°04'2 4.3
2019-Apr-21 17:31N 50°37' W 001°02'3 5.6
2019-Apr-21 17:00N 50°40' W 001°02'3 6.5
2019-Apr-21 16:30N 50°43' W 001°02'4 7.5
2019-Apr-21 16:01N 50°46' W 001°05'2 3.1
2019-Apr-21 15:28N 50°48' W 001°07'0 0.0
2019-Apr-21 14:58N 50°48' W 001°07'0 0.0
2019-Apr-21 14:28N 50°48' W 001°07'0 0.0
2019-Apr-21 13:58N 50°48' W 001°07'0 0.0
2019-Apr-21 13:28N 50°48' W 001°07'0 0.0
2019-Apr-21 12:58N 50°48' W 001°07'0 0.0
2019-Apr-21 12:28N 50°48' W 001°07'0 0.0
2019-Apr-21 11:58N 50°48' W 001°07'0 0.0
2019-Apr-21 11:28N 50°48' W 001°07'0 0.0
2019-Apr-21 10:58N 50°48' W 001°07'0 0.0
2019-Apr-21 10:28N 50°48' W 001°07'0 0.0
2019-Apr-21 09:58N 50°48' W 001°07'0 0.0
2019-Apr-21 09:28N 50°48' W 001°07'0 0.0
2019-Apr-21 08:58N 50°48' W 001°07'0 0.0
2019-Apr-21 08:28N 50°48' W 001°07'0 0.0
2019-Apr-21 07:58N 50°48' W 001°07'0 0.0
2019-Apr-21 07:28N 50°48' W 001°07'0 0.0
2019-Apr-21 06:58N 50°48' W 001°07'0 0.0
2019-Apr-21 06:28N 50°48' W 001°07'0 0.0
2019-Apr-21 05:58N 50°48' W 001°07'0 0.0
2019-Apr-21 05:28N 50°48' W 001°07'0 0.0
2019-Apr-21 04:58N 50°48' W 001°07'0 0.0
2019-Apr-21 04:28N 50°48' W 001°07'0 0.0
2019-Apr-21 03:58N 50°48' W 001°07'0 0.0
2019-Apr-21 03:28N 50°48' W 001°07'0 0.0
2019-Apr-21 02:58N 50°48' W 001°07'0 0.0
2019-Apr-21 02:28N 50°48' W 001°07'0 0.0
2019-Apr-21 01:58N 50°48' W 001°07'0 0.0
2019-Apr-21 01:28N 50°48' W 001°07'0 0.0
2019-Apr-21 00:58N 50°48' W 001°07'0 0.0
2019-Apr-21 00:28N 50°48' W 001°07'0 0.0
2019-Apr-21 00:01N 50°48' W 001°07'0 0.0
2019-Apr-20 23:31N 50°48' W 001°07'0 0.0
2019-Apr-20 22:58N 50°48' W 001°07'0 0.0
2019-Apr-20 22:28N 50°48' W 001°07'0 0.0
2019-Apr-20 22:01N 50°48' W 001°07'0 0.0
2019-Apr-20 21:30N 50°48' W 001°07'0 0.0
2019-Apr-20 21:00N 50°48' W 001°07'0 0.0
2019-Apr-20 20:31N 50°48' W 001°07'0 0.0
2019-Apr-20 20:00N 50°48' W 001°07'0 0.0
2019-Apr-20 19:31N 50°48' W 001°07'0 0.0
2019-Apr-20 19:00N 50°48' W 001°07'0 0.0
2019-Apr-20 18:30N 50°48' W 001°07'0 0.0
2019-Apr-20 18:00N 50°48' W 001°07'0 0.0
2019-Apr-20 17:30N 50°48' W 001°07'0 0.0
2019-Apr-20 17:00N 50°48' W 001°07'0 0.0
2019-Apr-20 16:30N 50°48' W 001°07'0 0.0
2019-Apr-20 16:01N 50°48' W 001°07'1 2.0
2019-Apr-20 15:30N 50°47' W 001°06'2 3.5
2019-Apr-20 15:00N 50°45' W 001°07'2 4.1
2019-Apr-20 14:31N 50°46' W 001°10'2 4.7
2019-Apr-20 14:01N 50°47' W 001°14'3 5.9
2019-Apr-20 13:30N 50°49' W 001°18'3 6.2
2019-Apr-20 13:01N 50°51' W 001°21'3 5.0
2019-Apr-20 12:28N 50°53' W 001°24'0 0.0
2019-Apr-20 11:58N 50°53' W 001°24'0 0.0
2019-Apr-20 11:28N 50°53' W 001°24'0 0.0
2019-Apr-20 10:58N 50°53' W 001°24'0 0.0
2019-Apr-20 10:28N 50°53' W 001°24'0 0.0
2019-Apr-20 09:58N 50°53' W 001°24'0 0.0
2019-Apr-20 09:28N 50°53' W 001°24'0 0.0
2019-Apr-20 08:58N 50°53' W 001°24'0 0.0
2019-Apr-20 08:28N 50°53' W 001°24'0 0.0
2019-Apr-20 07:58N 50°53' W 001°24'0 0.0
2019-Apr-20 07:28N 50°53' W 001°24'0 0.0
2019-Apr-20 06:58N 50°53' W 001°24'0 0.0
2019-Apr-20 06:28N 50°53' W 001°24'0 0.0
2019-Apr-20 05:58N 50°53' W 001°24'0 0.0
2019-Apr-20 05:28N 50°53' W 001°24'0 0.0
2019-Apr-20 04:58N 50°53' W 001°24'0 0.0
2019-Apr-20 04:28N 50°53' W 001°24'0 0.0
2019-Apr-20 03:58N 50°53' W 001°24'0 0.0
2019-Apr-20 03:28N 50°53' W 001°24'0 0.0
2019-Apr-20 02:58N 50°53' W 001°24'0 0.0
2019-Apr-20 02:28N 50°53' W 001°24'0 0.0
2019-Apr-20 01:58N 50°53' W 001°24'0 0.0
2019-Apr-20 01:28N 50°53' W 001°24'0 0.0
2019-Apr-20 00:58N 50°53' W 001°24'0 0.0
2019-Apr-20 00:28N 50°53' W 001°24'0 0.0
2019-Apr-19 23:58N 50°53' W 001°24'0 0.0
2019-Apr-19 23:28N 50°53' W 001°24'0 0.0
2019-Apr-19 22:58N 50°53' W 001°24'0 0.0
2019-Apr-19 22:28N 50°53' W 001°24'0 0.0
2019-Apr-19 21:58N 50°53' W 001°24'0 0.0
2019-Apr-19 21:28N 50°53' W 001°24'0 0.0
2019-Apr-19 20:52N 50°53' W 001°24'0 0.0
2019-Apr-19 20:28N 50°53' W 001°24'0 0.0
2019-Apr-19 19:58N 50°53' W 001°24'0 0.0
2019-Apr-19 19:28N 50°53' W 001°24'0 0.0
2019-Apr-19 18:58N 50°53' W 001°24'0 0.0
2019-Apr-19 18:28N 50°53' W 001°24'0 0.0
2019-Apr-19 17:58N 50°53' W 001°24'0 0.0
2019-Apr-19 17:28N 50°53' W 001°24'0 0.0
2019-Apr-19 16:58N 50°53' W 001°24'0 0.0
2019-Apr-19 16:31N 50°53' W 001°24'0 0.0
2019-Apr-19 16:01N 50°53' W 001°24'0 0.0
2019-Apr-19 15:30N 50°53' W 001°24'0 0.0
2019-Apr-19 15:00N 50°53' W 001°24'0 0.0
2019-Apr-19 14:30N 50°53' W 001°24'0 0.0
2019-Apr-19 14:00N 50°53' W 001°24'0 0.0
2019-Apr-19 13:30N 50°53' W 001°24'0 0.0
2019-Apr-19 13:00N 50°53' W 001°24'0 0.0
2019-Apr-19 12:30N 50°53' W 001°24'0 0.0
2019-Apr-19 12:00N 50°53' W 001°24'0 0.0
2019-Apr-19 11:30N 50°53' W 001°24'0 0.0
2019-Apr-19 11:00N 50°53' W 001°24'0 0.0
2019-Apr-19 10:30N 50°53' W 001°24'0 0.0
2019-Apr-19 09:54N 50°53' W 001°24'0 0.0
2019-Apr-19 09:30N 50°53' W 001°24'0 0.0
2019-Apr-19 08:57N 50°53' W 001°24'0 0.0
2019-Apr-19 08:27N 50°53' W 001°24'0 0.0
2019-Apr-19 08:00N 50°53' W 001°24'0 0.0
2019-Apr-19 07:30N 50°53' W 001°24'0 0.0
2019-Apr-19 07:00N 50°53' W 001°24'0 0.0
2019-Apr-19 06:30N 50°53' W 001°24'0 0.0
2019-Apr-19 05:51N 50°53' W 001°24'0 0.0
2019-Apr-19 05:30N 50°53' W 001°24'0 0.0
2019-Apr-19 05:00N 50°53' W 001°24'0 0.0
2019-Apr-19 04:30N 50°53' W 001°24'0 0.0
2019-Apr-19 04:00N 50°53' W 001°24'0 0.0
2019-Apr-19 03:09N 50°53' W 001°24'0 0.0
2019-Apr-19 03:00N 50°53' W 001°24'0 0.0
2019-Apr-19 02:30N 50°53' W 001°24'0 0.0
2019-Apr-19 02:00N 50°53' W 001°24'0 0.0
2019-Apr-19 01:27N 50°53' W 001°24'0 0.0
2019-Apr-19 00:57N 50°53' W 001°24'0 0.0
2019-Apr-19 00:27N 50°53' W 001°24'0 0.0
2019-Apr-19 00:00N 50°53' W 001°24'0 0.0
2019-Apr-18 23:30N 50°53' W 001°24'0 0.0
2019-Apr-18 22:57N 50°53' W 001°24'0 0.0
2019-Apr-18 22:24N 50°53' W 001°24'0 0.0
2019-Apr-18 21:57N 50°53' W 001°24'0 0.0
2019-Apr-18 21:30N 50°53' W 001°24'0 0.0
2019-Apr-18 21:00N 50°53' W 001°24'0 0.0
2019-Apr-18 20:30N 50°53' W 001°24'0 0.0
2019-Apr-18 19:57N 50°53' W 001°24'0 0.0
2019-Apr-18 19:30N 50°53' W 001°24'0 0.0
2019-Apr-18 18:57N 50°53' W 001°24'0 0.0
2019-Apr-18 18:30N 50°53' W 001°24'0 0.0
2019-Apr-18 18:00N 50°53' W 001°24'0 0.0
2019-Apr-18 17:30N 50°53' W 001°24'0 0.0
2019-Apr-18 16:57N 50°53' W 001°24'0 0.0
2019-Apr-18 16:30N 50°53' W 001°24'0 0.0
2019-Apr-18 15:48N 50°53' W 001°24'0 0.0
2019-Apr-18 15:30N 50°53' W 001°24'0 0.0
2019-Apr-18 15:00N 50°53' W 001°24'0 0.0
2019-Apr-18 14:30N 50°53' W 001°24'0 0.0
2019-Apr-18 14:00N 50°53' W 001°24'0 0.0
2019-Apr-18 13:30N 50°53' W 001°24'0 0.0
2019-Apr-18 13:00N 50°53' W 001°24'0 0.0
2019-Apr-18 12:27N 50°53' W 001°24'0 0.0
2019-Apr-18 11:51N 50°53' W 001°24'0 0.0
2019-Apr-18 11:30N 50°53' W 001°24'0 0.0
2019-Apr-18 11:00N 50°53' W 001°24'0 0.0
2019-Apr-18 10:30N 50°53' W 001°24'0 0.0
2019-Apr-18 10:00N 50°53' W 001°24'0 0.0
2019-Apr-18 09:27N 50°53' W 001°24'0 0.0
2019-Apr-18 08:57N 50°53' W 001°24'0 0.0
2019-Apr-18 08:30N 50°53' W 001°24'0 0.0
2019-Apr-18 08:00N 50°53' W 001°24'0 0.0
2019-Apr-18 07:24N 50°53' W 001°24'0 0.0
2019-Apr-18 06:57N 50°53' W 001°24'0 0.0
2019-Apr-18 06:30N 50°53' W 001°24'0 0.0
2019-Apr-18 06:00N 50°53' W 001°24'0 0.0
2019-Apr-18 05:30N 50°53' W 001°24'0 0.0
2019-Apr-18 05:00N 50°53' W 001°24'0 0.0
2019-Apr-18 04:24N 50°53' W 001°24'0 0.0
2019-Apr-18 03:57N 50°53' W 001°24'0 0.0
2019-Apr-18 03:27N 50°53' W 001°24'0 0.0
2019-Apr-18 02:54N 50°53' W 001°24'0 0.0
2019-Apr-18 02:30N 50°53' W 001°24'0 0.0
2019-Apr-18 02:00N 50°53' W 001°24'0 0.0
2019-Apr-18 01:29N 50°53' W 001°24'0 0.0
2019-Apr-18 00:59N 50°53' W 001°24'0 0.0
2019-Apr-18 00:29N 50°53' W 001°24'0 0.0
2019-Apr-17 23:59N 50°53' W 001°24'0 0.0
2019-Apr-17 23:26N 50°53' W 001°24'0 0.0
2019-Apr-17 22:56N 50°53' W 001°24'0 0.0
2019-Apr-17 22:29N 50°53' W 001°24'0 0.0
2019-Apr-17 21:59N 50°53' W 001°24'0 0.0
2019-Apr-17 21:29N 50°53' W 001°24'0 0.0
2019-Apr-17 20:59N 50°53' W 001°24'0 0.0
2019-Apr-17 20:29N 50°53' W 001°24'0 0.0
2019-Apr-17 19:53N 50°53' W 001°24'0 0.0
2019-Apr-17 19:29N 50°53' W 001°24'0 0.0
2019-Apr-17 18:59N 50°53' W 001°24'0 0.0
2019-Apr-17 18:29N 50°53' W 001°24'0 0.0
2019-Apr-17 17:59N 50°53' W 001°24'0 0.0
2019-Apr-17 17:29N 50°53' W 001°24'0 0.0
2019-Apr-17 16:56N 50°53' W 001°24'0 0.0
2019-Apr-17 16:23N 50°53' W 001°24'0 0.0
2019-Apr-17 15:59N 50°53' W 001°24'0 0.0
2019-Apr-17 15:14N 50°53' W 001°24'0 0.0
2019-Apr-17 14:59N 50°53' W 001°24'0 0.0
2019-Apr-17 14:29N 50°53' W 001°24'0 0.0
2019-Apr-17 13:56N 50°53' W 001°24'0 0.0
2019-Apr-17 13:23N 50°53' W 001°24'0 0.0
2019-Apr-17 12:59N 50°53' W 001°24'0 0.0
2019-Apr-17 12:29N 50°53' W 001°24'0 0.0
2019-Apr-17 11:59N 50°53' W 001°24'0 0.0
2019-Apr-17 11:29N 50°53' W 001°24'0 0.0
2019-Apr-17 10:59N 50°53' W 001°24'0 0.0
2019-Apr-17 10:29N 50°53' W 001°24'0 0.0
2019-Apr-17 09:56N 50°53' W 001°24'0 0.0
2019-Apr-17 09:29N 50°53' W 001°24'0 0.0
2019-Apr-17 08:56N 50°53' W 001°24'0 0.0
2019-Apr-17 08:26N 50°53' W 001°24'0 0.0
2019-Apr-17 07:59N 50°53' W 001°24'0 0.0
2019-Apr-17 07:29N 50°53' W 001°24'0 0.0
2019-Apr-17 06:59N 50°53' W 001°24'0 0.0
2019-Apr-17 06:29N 50°53' W 001°24'0 0.0
2019-Apr-17 05:59N 50°53' W 001°24'0 0.0
2019-Apr-17 05:29N 50°53' W 001°24'0 0.0
2019-Apr-17 04:59N 50°53' W 001°24'0 0.0
2019-Apr-17 04:23N 50°53' W 001°24'0 0.0
2019-Apr-17 03:53N 50°53' W 001°24'0 0.0
2019-Apr-17 03:29N 50°53' W 001°24'0 0.0
2019-Apr-17 02:59N 50°53' W 001°24'0 0.0
2019-Apr-17 02:26N 50°53' W 001°24'0 0.0
2019-Apr-17 01:59N 50°53' W 001°24'0 0.0
2019-Apr-17 01:29N 50°53' W 001°24'0 0.0
2019-Apr-17 00:53N 50°53' W 001°24'0 0.0
2019-Apr-17 00:26N 50°53' W 001°24'0 0.0
2019-Apr-16 23:59N 50°53' W 001°24'0 0.0
2019-Apr-16 23:29N 50°53' W 001°24'0 0.0
2019-Apr-16 22:59N 50°53' W 001°24'0 0.0
2019-Apr-16 22:29N 50°53' W 001°24'0 0.0
2019-Apr-16 21:59N 50°53' W 001°24'0 0.0
2019-Apr-16 21:29N 50°53' W 001°24'0 0.0
2019-Apr-16 20:59N 50°53' W 001°24'0 0.0
2019-Apr-16 20:29N 50°53' W 001°24'0 0.0
2019-Apr-16 19:59N 50°53' W 001°24'0 0.0
2019-Apr-16 19:29N 50°53' W 001°24'0 0.0
2019-Apr-16 18:56N 50°53' W 001°24'0 0.0
2019-Apr-16 18:20N 50°53' W 001°24'0 0.0
2019-Apr-16 17:59N 50°53' W 001°24'0 0.0
2019-Apr-16 17:29N 50°53' W 001°24'0 0.0
2019-Apr-16 16:59N 50°53' W 001°24'0 0.0
2019-Apr-16 16:20N 50°53' W 001°24'0 0.0
2019-Apr-16 15:59N 50°53' W 001°24'0 0.0
2019-Apr-16 15:29N 50°53' W 001°24'0 0.0
2019-Apr-16 14:56N 50°53' W 001°24'0 0.0
2019-Apr-16 14:26N 50°53' W 001°24'0 0.0
2019-Apr-16 13:59N 50°53' W 001°24'0 0.0
2019-Apr-16 13:23N 50°53' W 001°24'0 0.0
2019-Apr-16 12:56N 50°53' W 001°24'0 0.0
2019-Apr-16 12:29N 50°53' W 001°24'0 0.0
2019-Apr-16 11:59N 50°53' W 001°24'0 0.0
2019-Apr-16 11:22N 50°53' W 001°24'0 0.0
2019-Apr-16 10:58N 50°53' W 001°24'0 0.0
2019-Apr-16 10:25N 50°53' W 001°24'0 0.0
2019-Apr-16 09:58N 50°53' W 001°24'0 0.0
2019-Apr-16 09:28N 50°53' W 001°24'0 0.0
2019-Apr-16 08:58N 50°53' W 001°24'0 0.0
2019-Apr-16 08:28N 50°53' W 001°24'0 0.0
2019-Apr-16 07:55N 50°53' W 001°24'0 0.0
2019-Apr-16 07:29N 50°53' W 001°24'0 0.0
2019-Apr-16 06:56N 50°53' W 001°24'0 0.0
2019-Apr-16 06:29N 50°53' W 001°24'0 0.0
2019-Apr-16 05:59N 50°53' W 001°24'0 0.0
2019-Apr-16 05:29N 50°53' W 001°24'0 0.0
2019-Apr-16 04:59N 50°53' W 001°24'0 0.0
2019-Apr-16 04:26N 50°53' W 001°24'0 0.0
2019-Apr-16 03:59N 50°53' W 001°24'0 0.0
2019-Apr-16 03:29N 50°53' W 001°24'0 0.0
2019-Apr-16 02:53N 50°53' W 001°24'0 0.0
2019-Apr-16 02:29N 50°53' W 001°24'0 0.0
2019-Apr-16 01:56N 50°53' W 001°24'0 0.0
2019-Apr-16 01:29N 50°53' W 001°24'0 0.0
2019-Apr-16 00:56N 50°53' W 001°24'0 0.0
2019-Apr-16 00:29N 50°53' W 001°24'0 0.0
2019-Apr-15 23:59N 50°53' W 001°24'0 0.0
2019-Apr-15 23:29N 50°53' W 001°24'0 0.0
2019-Apr-15 22:59N 50°53' W 001°24'0 0.0
2019-Apr-15 22:29N 50°53' W 001°24'0 0.0
2019-Apr-15 21:59N 50°53' W 001°24'0 0.0
2019-Apr-15 21:26N 50°53' W 001°24'0 0.0
2019-Apr-15 20:59N 50°53' W 001°24'0 0.0
2019-Apr-15 20:29N 50°53' W 001°24'0 0.0
2019-Apr-15 19:59N 50°53' W 001°24'0 0.0
2019-Apr-15 19:29N 50°53' W 001°24'0 0.0
2019-Apr-15 18:59N 50°53' W 001°24'0 0.0
2019-Apr-15 18:29N 50°53' W 001°24'0 0.0
2019-Apr-15 18:00N 50°53' W 001°24'0 0.4
2019-Apr-15 17:30N 50°53' W 001°24'2 5.0
2019-Apr-15 17:01N 50°51' W 001°21'4 7.8
2019-Apr-15 16:30N 50°48' W 001°17'4 8.0
2019-Apr-15 16:00N 50°46' W 001°11'4 7.7
2019-Apr-15 15:31N 50°45' W 001°05'3 5.3
2019-Apr-15 14:59N 50°48' W 001°07'0 0.0
2019-Apr-15 14:30N 50°48' W 001°07'0 0.0
2019-Apr-15 14:00N 50°48' W 001°07'0 0.0
2019-Apr-15 13:30N 50°48' W 001°07'0 0.0
2019-Apr-15 13:00N 50°48' W 001°07'0 0.0
2019-Apr-15 12:31N 50°48' W 001°07'  

Dump ship's entire track history